Time;durP1;ratioP1;P1;durP2;ratioP2;P2;SDS_P1;SDS_P2;PMS_P1;PMS_P2;Temp;Humidity;BMP_temperature;BMP_pressure;BME280_temperature;BME280_humidity;BME280_pressure;Samples;Min_cycle;Max_cycle;Signal;HPM_P1;HPM_P2
2023/10/03 00:02:22;;;;;;;13.40;6.93;;;;;;;10.74;100.00;101255.62;1423798;92;21427;-86
2023/10/03 00:04:48;;;;;;;14.83;6.70;;;;;;;10.72;100.00;101257.55;1419480;92;21420;-87
2023/10/03 00:07:15;;;;;;;13.10;5.80;;;;;;;10.72;100.00;101253.57;1402553;92;22389;-84
2023/10/03 00:09:43;;;;;;;15.80;6.57;;;;;;;10.71;100.00;101253.23;1422581;92;21413;-87
2023/10/03 00:12:10;;;;;;;13.30;6.50;;;;;;;10.65;100.00;101252.42;1419074;92;21478;-85
2023/10/03 00:14:37;;;;;;;16.70;7.33;;;;;;;10.57;100.00;101253.05;1419724;92;21441;-87
2023/10/03 00:17:03;;;;;;;13.50;6.00;;;;;;;10.50;100.00;101253.22;1419549;91;21457;-87
2023/10/03 00:19:30;;;;;;;12.53;5.70;;;;;;;10.48;100.00;101257.78;1428420;91;21404;-88
2023/10/03 00:21:56;;;;;;;16.20;6.73;;;;;;;10.49;100.00;101257.30;1422266;91;22344;-88
2023/10/03 00:24:22;;;;;;;12.00;7.33;;;;;;;10.53;100.00;101252.09;1430017;92;22252;-86
2023/10/03 00:26:50;;;;;;;17.83;6.90;;;;;;;10.55;100.00;101251.49;1419057;92;21390;-88
2023/10/03 00:29:23;;;;;;;14.33;7.30;;;;;;;10.56;100.00;101249.22;1419260;92;21524;-87
2023/10/03 00:31:45;;;;;;;9.93;6.27;;;;;;;10.53;100.00;101248.13;1427193;92;21531;-88
2023/10/03 00:34:12;;;;;;;15.70;7.57;;;;;;;10.49;100.00;101245.39;1423314;92;21641;-87
2023/10/03 00:36:40;;;;;;;14.70;7.77;;;;;;;10.47;100.00;101252.61;1424736;92;21405;-86
2023/10/03 00:39:06;;;;;;;12.27;6.23;;;;;;;10.47;100.00;101251.28;1424022;92;22271;-88
2023/10/03 00:41:34;;;;;;;16.40;6.37;;;;;;;10.48;100.00;101251.66;1423767;91;21375;-88
2023/10/03 00:44:04;;;;;;;18.23;6.03;;;;;;;10.51;100.00;101248.76;1420873;91;21375;-87
2023/10/03 00:46:31;;;;;;;17.37;9.13;;;;;;;10.54;100.00;101253.80;1425832;92;21369;-87
2023/10/03 00:49:08;;;;;;;18.23;6.80;;;;;;;10.56;100.00;101249.22;1424911;91;23102;-86
2023/10/03 00:51:31;;;;;;;16.95;8.60;;;;;;;10.63;100.00;101246.89;1414418;92;21493;-86
2023/10/03 00:53:57;;;;;;;14.83;6.30;;;;;;;10.70;100.00;101240.94;1424536;91;22367;-86
2023/10/03 00:56:24;;;;;;;14.77;6.97;;;;;;;10.78;100.00;101239.81;1423267;91;21553;-83
2023/10/03 00:58:51;;;;;;;14.87;7.30;;;;;;;10.81;100.00;101240.87;1404213;92;21494;-84
2023/10/03 01:01:18;;;;;;;12.53;7.47;;;;;;;10.87;100.00;101244.82;1424008;92;21376;-85
2023/10/03 01:03:47;;;;;;;14.43;6.47;;;;;;;10.91;100.00;101236.98;1422884;91;21526;-85
2023/10/03 01:06:15;;;;;;;11.30;6.13;;;;;;;10.95;100.00;101240.20;1420588;91;23193;-86
2023/10/03 01:08:49;;;;;;;13.90;6.83;;;;;;;10.98;100.00;101239.45;1425295;92;21912;-86
2023/10/03 01:11:18;;;;;;;15.03;6.23;;;;;;;11.04;100.00;101242.07;1422042;91;21524;-86
2023/10/03 01:13:47;;;;;;;15.60;6.83;;;;;;;11.10;100.00;101237.56;1421632;91;21390;-86
2023/10/03 01:16:32;;;;;;;15.27;7.07;;;;;;;11.17;100.00;101232.61;1427339;92;21459;-85
2023/10/03 01:19:19;;;;;;;15.73;6.33;;;;;;;11.20;100.00;101237.15;1422559;92;21487;-86
2023/10/03 01:21:28;;;;;;;13.27;6.63;;;;;;;11.20;100.00;101234.50;1419545;92;21502;-84
2023/10/03 01:23:54;;;;;;;14.70;6.20;;;;;;;11.20;100.00;101231.84;1418351;92;21428;-82
2023/10/03 01:26:21;;;;;;;13.43;6.07;;;;;;;11.20;100.00;101227.04;1383307;92;21665;-82
2023/10/03 01:28:49;;;;;;;12.27;6.63;;;;;;;11.19;100.00;101227.53;1419782;92;21302;-82
2023/10/03 01:31:15;;;;;;;14.00;7.07;;;;;;;11.20;100.00;101225.22;1423377;92;21472;-81
2023/10/03 01:33:41;;;;;;;13.30;7.00;;;;;;;11.21;100.00;101224.23;1416429;91;21471;-81
2023/10/03 01:36:09;;;;;;;13.70;6.90;;;;;;;11.23;100.00;101221.47;1414539;92;21560;-82
2023/10/03 01:38:36;;;;;;;13.60;6.23;;;;;;;11.22;100.00;101228.59;1418196;91;21428;-84
2023/10/03 01:41:02;;;;;;;10.37;6.63;;;;;;;11.21;100.00;101225.56;1410064;92;21434;-84
2023/10/03 01:43:28;;;;;;;14.10;6.93;;;;;;;11.21;100.00;101217.61;1400770;92;22513;-83
2023/10/03 01:45:55;;;;;;;13.90;6.13;;;;;;;11.25;100.00;101220.37;1429844;91;21420;-84
2023/10/03 01:48:21;;;;;;;16.63;6.80;;;;;;;11.30;100.00;101223.94;1405669;92;21346;-85
2023/10/03 01:50:50;;;;;;;12.07;6.20;;;;;;;11.37;100.00;101229.56;1427434;92;21526;-86
2023/10/03 01:53:15;;;;;;;14.70;6.77;;;;;;;11.41;100.00;101224.33;1426559;92;22284;-85
2023/10/03 01:55:42;;;;;;;10.83;6.17;;;;;;;11.45;100.00;101223.95;1420655;91;21457;-84
2023/10/03 01:58:08;;;;;;;13.27;6.87;;;;;;;11.51;100.00;101223.89;1418802;92;22574;-85
2023/10/03 02:00:36;;;;;;;19.90;7.87;;;;;;;11.55;100.00;101218.66;1418386;91;21435;-85
2023/10/03 02:03:05;;;;;;;18.77;7.27;;;;;;;11.55;100.00;101219.16;1422802;92;21346;-86
2023/10/03 02:05:33;;;;;;;11.70;6.40;;;;;;;11.57;100.00;101218.05;1422737;92;21620;-84
2023/10/03 02:08:16;;;;;;;10.87;5.73;;;;;;;11.64;100.00;101206.41;1426227;91;21405;-84
2023/10/03 02:10:49;;;;;;;13.70;5.77;;;;;;;11.68;100.00;101216.63;1417975;92;21354;-84
2023/10/03 02:13:21;;;;;;;12.73;5.23;;;;;;;11.69;100.00;101214.31;1396982;92;21420;-84
2023/10/03 02:15:53;;;;;;;13.77;6.07;;;;;;;11.75;100.00;101213.77;1424884;91;21740;-84
2023/10/03 02:18:21;;;;;;;19.77;7.40;;;;;;;11.82;100.00;101217.20;1397404;92;21582;-85
2023/10/03 02:20:54;;;;;;;10.80;6.30;;;;;;;11.83;100.00;101218.89;1424611;92;21398;-85
2023/10/03 02:23:23;;;;;;;12.67;7.03;;;;;;;11.86;100.00;101216.83;1418378;91;21405;-90
2023/10/03 02:25:52;;;;;;;10.10;6.70;;;;;;;11.90;100.00;101218.71;1428586;92;22224;-89
2023/10/03 02:28:20;;;;;;;11.07;6.03;;;;;;;11.93;100.00;101215.29;1417970;92;22277;-89
2023/10/03 02:30:50;;;;;;;10.90;5.60;;;;;;;11.99;100.00;101209.92;1423729;91;21398;-82
2023/10/03 02:33:18;;;;;;;11.55;5.90;;;;;;;12.01;100.00;101202.67;1427061;91;22468;-83
2023/10/03 02:35:47;;;;;;;12.10;6.50;;;;;;;12.03;100.00;101210.02;1422406;91;21509;-82
2023/10/03 02:38:25;;;;;;;15.43;6.47;;;;;;;12.03;100.00;101204.71;1423307;91;21413;-83
2023/10/03 02:40:57;;;;;;;12.20;7.80;;;;;;;12.03;100.00;101212.67;1425833;92;21413;-84
2023/10/03 02:43:26;;;;;;;12.53;7.10;;;;;;;12.01;100.00;101202.67;1427107;92;22358;-83
2023/10/03 02:45:52;;;;;;;11.30;5.97;;;;;;;12.00;100.00;101203.66;1424076;91;22744;-83
2023/10/03 02:48:20;;;;;;;12.83;6.50;;;;;;;12.03;100.00;101204.71;1415701;91;21441;-83
2023/10/03 02:50:48;;;;;;;10.37;6.10;;;;;;;12.07;100.00;101203.45;1427145;92;21464;-83
2023/10/03 02:53:22;;;;;;;14.83;6.77;;;;;;;12.12;100.00;101200.39;1422243;92;22472;-83
2023/10/03 02:55:51;;;;;;;18.60;7.37;;;;;;;12.17;100.00;101204.30;1424194;92;22506;-83
2023/10/03 02:58:19;;;;;;;14.77;6.50;;;;;;;12.22;100.00;101198.56;1417887;91;22212;-83
2023/10/03 03:00:49;;;;;;;10.90;6.90;;;;;;;12.26;100.00;101204.45;1424359;92;21368;-83
2023/10/03 03:03:15;;;;;;;14.87;7.30;;;;;;;12.31;100.00;101208.83;1420502;92;21583;-83
2023/10/03 03:05:43;;;;;;;12.37;6.83;;;;;;;12.33;100.00;101205.55;1415405;92;22372;-83
2023/10/03 03:08:22;;;;;;;13.60;6.13;;;;;;;12.34;100.00;101204.56;1425168;91;21419;-87
2023/10/03 03:10:38;;;;;;;13.13;6.70;;;;;;;12.39;100.00;101197.03;1421549;92;22437;-86
2023/10/03 03:13:07;;;;;;;13.57;7.17;;;;;;;12.44;100.00;101206.74;1423580;91;21425;-87
2023/10/03 03:15:38;;;;;;;12.90;6.70;;;;;;;12.47;100.00;101201.14;1425830;91;21611;-86
2023/10/03 03:18:04;;;;;;;23.10;8.77;;;;;;;12.51;100.00;101199.87;1422275;92;21405;-88
2023/10/03 03:20:37;;;;;;;17.30;8.33;;;;;;;12.52;100.00;101205.55;1423262;91;21480;-86
2023/10/03 03:23:00;;;;;;;13.83;7.27;;;;;;;12.51;100.00;101205.67;1424379;92;21604;-87
2023/10/03 03:25:36;;;;;;;16.27;8.03;;;;;;;12.49;100.00;101203.19;1418563;91;21398;-87
2023/10/03 03:28:13;;;;;;;17.00;7.07;;;;;;;12.50;100.00;101206.17;1423122;92;21419;-87
2023/10/03 03:30:46;;;;;;;12.60;6.73;;;;;;;12.52;100.00;101204.72;1423357;92;21464;-88
2023/10/03 03:33:20;;;;;;;14.17;7.10;;;;;;;12.50;100.00;101194.22;1430975;92;21524;-86
2023/10/03 03:35:47;;;;;;;15.70;7.57;;;;;;;12.51;100.00;101198.55;1424088;91;22463;-87
2023/10/03 03:38:18;;;;;;;18.33;8.37;;;;;;;12.48;100.00;101200.16;1425193;91;21361;-87
2023/10/03 03:40:46;;;;;;;12.20;7.20;;;;;;;12.41;100.00;101197.23;1427891;91;22311;-85
2023/10/03 03:43:17;;;;;;;14.40;8.30;;;;;;;12.31;100.00;101196.39;1421365;91;21412;-87
2023/10/03 03:45:44;;;;;;;13.17;7.47;;;;;;;12.23;100.00;101191.43;1424696;91;21434;-86
2023/10/03 03:48:13;;;;;;;17.13;7.10;;;;;;;12.15;100.00;101183.70;1424644;91;21427;-87
2023/10/03 03:50:39;;;;;;;13.10;6.40;;;;;;;12.11;100.00;101188.94;1425706;91;21575;-87
2023/10/03 03:53:07;;;;;;;17.93;7.33;;;;;;;12.08;100.00;101187.86;1425014;91;21382;-86
2023/10/03 03:55:35;;;;;;;12.60;6.53;;;;;;;12.07;100.00;101180.06;1429567;91;21391;-86
2023/10/03 03:58:14;;;;;;;14.90;6.50;;;;;;;12.09;100.00;101181.60;1414240;92;21457;-87
2023/10/03 04:00:38;;;;;;;15.17;7.53;;;;;;;12.10;100.00;101180.61;1400872;92;21536;-86
2023/10/03 04:03:07;;;;;;;16.27;7.53;;;;;;;12.10;100.00;101181.94;1416539;92;21471;-86
2023/10/03 04:05:34;;;;;;;15.57;6.83;;;;;;;12.07;100.00;101180.06;1423445;92;21509;-85
2023/10/03 04:08:02;;;;;;;13.17;7.13;;;;;;;12.06;100.00;101183.20;1423424;91;21457;-83
2023/10/03 04:10:28;;;;;;;15.70;6.53;;;;;;;12.02;100.00;101183.61;1421115;92;21457;-83
2023/10/03 04:12:54;;;;;;;18.63;7.57;;;;;;;11.99;100.00;101188.70;1421930;91;21383;-84
2023/10/03 04:15:21;;;;;;;18.37;6.30;;;;;;;11.93;100.00;101187.93;1422126;91;21664;-86
2023/10/03 04:17:51;;;;;;;14.60;6.80;;;;;;;11.91;100.00;101188.55;1423193;91;21405;-83
2023/10/03 04:20:30;;;;;;;13.17;6.70;;;;;;;11.91;100.00;101189.87;1428182;92;21583;-83
2023/10/03 04:22:50;;;;;;;15.50;7.23;;;;;;;11.93;100.00;101194.07;1416165;92;21434;-84
2023/10/03 04:25:19;;;;;;;16.70;6.80;;;;;;;11.94;100.00;101188.30;1417711;92;21495;-82
2023/10/03 04:27:45;;;;;;;13.70;6.77;;;;;;;11.96;100.00;101192.95;1405228;92;21501;-82
2023/10/03 04:30:13;;;;;;;12.07;7.53;;;;;;;11.99;100.00;101190.52;1420650;91;21427;-82
2023/10/03 04:32:43;;;;;;;13.63;6.13;;;;;;;12.03;100.00;101194.59;1421867;91;21464;-82
2023/10/03 04:35:11;;;;;;;15.83;6.55;;;;;;;12.07;100.00;101199.47;1422101;92;21427;-82
2023/10/03 04:37:41;;;;;;;11.53;6.47;;;;;;;12.10;100.00;101197.86;1418927;92;22366;-86
2023/10/03 04:40:10;;;;;;;16.13;6.60;;;;;;;12.12;100.00;101197.73;1417389;91;22335;-86
2023/10/03 04:42:38;;;;;;;12.53;6.97;;;;;;;12.10;100.00;101194.38;1419990;92;21457;-86
2023/10/03 04:45:10;;;;;;;21.07;8.67;;;;;;;12.05;100.00;101202.73;1426853;92;22395;-86
2023/10/03 04:47:38;;;;;;;15.10;8.30;;;;;;;12.01;100.00;101198.70;1424720;92;21450;-86
2023/10/03 04:50:05;;;;;;;15.33;8.57;;;;;;;12.01;100.00;101206.66;1417135;92;21653;-85
2023/10/03 04:52:31;;;;;;;22.37;7.47;;;;;;;12.02;100.00;101200.36;1418337;92;21889;-85
2023/10/03 04:54:58;;;;;;;15.53;6.73;;;;;;;12.07;100.00;101203.94;1423487;92;22306;-85
2023/10/03 04:57:27;;;;;;;12.73;6.97;;;;;;;12.12;100.00;101203.88;1425995;92;21398;-84
2023/10/03 04:59:56;;;;;;;13.23;7.37;;;;;;;12.18;100.00;101203.31;1423827;92;21568;-87
2023/10/03 05:02:21;;;;;;;17.00;7.00;;;;;;;12.23;100.00;101199.39;1424569;91;21523;-87
2023/10/03 05:04:47;;;;;;;17.93;7.30;;;;;;;12.23;100.00;101206.03;1422701;91;22425;-87
2023/10/03 05:07:13;;;;;;;29.07;8.03;;;;;;;12.22;100.00;101205.20;1401500;92;21332;-88
2023/10/03 05:09:40;;;;;;;15.37;7.60;;;;;;;12.24;100.00;101201.92;1388391;92;21514;-87
2023/10/03 05:12:06;;;;;;;12.23;6.13;;;;;;;12.30;100.00;101200.53;1420871;92;21337;-87
2023/10/03 05:14:34;;;;;;;16.60;7.07;;;;;;;12.36;100.00;101203.45;1422225;91;21464;-87
2023/10/03 05:17:03;;;;;;;;;;;;;;;12.46;100.00;101207.45;1429259;91;21479;-85
2023/10/03 05:19:31;;;;;;;16.60;6.13;;;;;;;12.54;100.00;101195.60;1424645;92;20317;-85
2023/10/03 05:21:58;;;;;;;16.23;7.37;;;;;;;12.61;100.00;101203.37;1423456;91;21801;-87
2023/10/03 05:24:25;;;;;;;20.40;7.70;;;;;;;12.65;100.00;101203.42;1428600;91;21436;-84
2023/10/03 05:26:55;;;;;;;19.40;7.70;;;;;;;12.70;100.00;101203.50;1420942;92;21434;-84
2023/10/03 05:29:22;;;;;;;34.05;9.00;;;;;;;12.69;100.00;101205.33;1421275;92;21437;-85
2023/10/03 05:31:48;;;;;;;17.07;6.90;;;;;;;12.68;100.00;101203.63;1423177;92;21546;-83
2023/10/03 05:34:15;;;;;;;13.90;7.27;;;;;;;12.68;100.00;101214.25;1397518;92;22381;-83
2023/10/03 05:36:41;;;;;;;15.53;7.43;;;;;;;12.72;100.00;101209.02;1425896;92;21490;-81
2023/10/03 05:39:12;;;;;;;25.97;8.03;;;;;;;12.79;100.00;101216.75;1422056;92;21405;-83
2023/10/03 05:41:36;;;;;;;15.80;8.13;;;;;;;12.85;100.00;101216.67;1419898;92;21434;-87
2023/10/03 05:44:02;;;;;;;20.00;7.33;;;;;;;12.88;100.00;101213.73;1417712;92;21546;-87
2023/10/03 05:46:28;;;;;;;14.00;6.87;;;;;;;12.90;100.00;101216.26;1418627;92;22344;-87
2023/10/03 05:48:54;;;;;;;20.77;7.87;;;;;;;12.91;100.00;101218.75;1418669;92;21294;-88
2023/10/03 05:51:20;;;;;;;22.93;8.57;;;;;;;12.93;100.00;101217.30;1423122;92;21612;-85
2023/10/03 05:53:46;;;;;;;21.57;10.07;;;;;;;12.97;100.00;101212.86;1422036;92;21369;-85
2023/10/03 05:56:13;;;;;;;15.30;8.37;;;;;;;13.03;100.00;101212.31;1399662;92;21421;-84
2023/10/03 05:58:39;;;;;;;22.40;8.93;;;;;;;13.13;100.00;101216.75;1406252;92;21501;-85
2023/10/03 06:01:05;;;;;;;20.90;8.93;;;;;;;13.20;100.00;101209.36;1419124;91;21390;-85
2023/10/03 06:03:31;;;;;;;15.70;7.73;;;;;;;13.32;100.00;101210.05;1418275;92;21490;-86
2023/10/03 06:05:57;;;;;;;14.50;7.73;;;;;;;13.39;100.00;101211.15;1425287;92;22376;-85
2023/10/03 06:08:24;;;;;;;20.23;8.80;;;;;;;13.47;100.00;101211.75;1421151;91;21623;-87
2023/10/03 06:10:50;;;;;;;31.67;8.57;;;;;;;13.54;100.00;101211.49;1418844;91;22037;-88
2023/10/03 06:13:17;;;;;;;18.30;7.80;;;;;;;13.66;100.00;101214.29;1420140;92;21568;-87
2023/10/03 06:15:43;;;;;;;21.17;7.10;;;;;;;13.73;100.00;101210.06;1417934;92;21464;-85
2023/10/03 06:18:09;;;;;;;20.27;8.47;;;;;;;13.81;100.00;101213.31;1418948;92;21583;-86
2023/10/03 06:20:36;;;;;;;17.93;7.67;;;;;;;13.89;100.00;101213.38;1423352;92;21354;-84
2023/10/03 06:23:04;;;;;;;18.10;8.13;;;;;;;13.95;100.00;101219.46;1429296;91;22485;-85
2023/10/03 06:25:31;;;;;;;15.83;7.00;;;;;;;14.03;100.00;101223.18;1419750;92;21442;-84
2023/10/03 06:27:57;;;;;;;19.40;8.80;;;;;;;14.08;100.00;101223.57;1417116;91;22440;-84
2023/10/03 06:30:23;;;;;;;19.87;7.50;;;;;;;14.16;100.00;101219.16;1399691;92;21494;-84
2023/10/03 06:32:49;;;;;;;22.37;7.60;;;;;;;14.19;100.00;101218.86;1423499;92;21443;-84
2023/10/03 06:35:17;;;;;;;17.73;7.87;;;;;;;14.24;100.00;101217.05;1423105;91;21523;-83
2023/10/03 06:37:44;;;;;;;21.20;7.47;;;;;;;14.29;100.00;101218.77;1421905;92;22462;-84
2023/10/03 06:40:13;;;;;;;21.07;7.97;;;;;;;14.41;100.00;101219.38;1421971;92;21397;-85
2023/10/03 06:42:39;;;;;;;13.00;6.30;;;;;;;14.54;100.00;101219.03;1420381;92;21486;-84
2023/10/03 06:45:11;;;;;;;14.57;7.27;;;;;;;14.62;100.00;101217.77;1425133;92;21541;-83
2023/10/03 06:47:38;;;;;;;16.33;7.53;;;;;;;14.66;100.00;101223.11;1417187;92;22299;-86
2023/10/03 06:50:06;;;;;;;14.27;6.83;;;;;;;14.72;100.00;101229.15;1419735;92;21881;-83
2023/10/03 06:59:39;;;;;;;23.50;7.20;;;;;;;14.95;100.00;101231.31;1356381;96;21489;-83
2023/10/03 07:02:06;;;;;;;22.33;7.60;;;;;;;15.05;100.00;101232.89;1359374;96;21615;-84
2023/10/03 07:04:32;;;;;;;14.60;7.03;;;;;;;15.11;100.00;101232.25;1373939;95;21525;-84
2023/10/03 07:06:58;;;;;;;85.47;10.80;;;;;;;15.20;100.00;101224.31;1376512;95;22503;-85
2023/10/03 07:09:24;;;;;;;14.73;6.67;;;;;;;15.22;100.00;101225.83;1357008;96;21452;-86
2023/10/03 07:11:50;;;;;;;15.57;7.20;;;;;;;15.32;100.00;101225.20;1359071;96;21600;-86
2023/10/03 07:14:18;;;;;;;14.47;6.60;;;;;;;15.45;100.00;101221.24;1358876;96;21511;-86
2023/10/03 07:16:46;;;;;;;13.63;6.77;;;;;;;15.60;100.00;101226.33;1360360;96;21622;-86
2023/10/03 07:19:14;;;;;;;13.67;6.27;;;;;;;15.82;100.00;101225.41;1360678;96;21652;-86
2023/10/03 07:21:42;;;;;;;12.67;6.57;;;;;;;16.05;100.00;101227.80;1358440;96;21527;-86
2023/10/03 07:24:08;;;;;;;10.73;6.00;;;;;;;16.29;100.00;101224.86;1361027;96;21459;-87
2023/10/03 07:26:35;;;;;;;12.80;6.67;;;;;;;16.47;100.00;101225.53;1402946;92;21552;-87
2023/10/03 07:29:02;;;;;;;21.50;9.33;;;;;;;16.61;100.00;101230.20;1397764;92;21464;-84
2023/10/03 07:31:32;;;;;;;12.40;6.20;;;;;;;16.76;100.00;101236.21;1423489;92;22359;-86
2023/10/03 07:33:58;;;;;;;15.15;6.72;;;;;;;16.90;100.00;101230.22;1420287;91;22441;-87
2023/10/03 07:36:25;;;;;;;20.07;6.47;;;;;;;17.06;100.00;101232.87;1424459;92;21427;-86
2023/10/03 07:38:51;;;;;;;27.00;6.23;;;;;;;17.21;100.00;101233.00;1401923;92;22209;-82
2023/10/03 07:41:19;;;;;;;17.73;6.90;;;;;;;17.30;100.00;101236.48;1421824;92;21449;-88
2023/10/03 07:43:48;;;;;;;19.37;6.60;;;;;;;17.32;100.00;101241.99;1403126;92;22858;-87
2023/10/03 07:46:25;;;;;;;17.07;7.17;;;;;;;17.36;100.00;101231.77;1417719;92;22367;-88
2023/10/03 07:48:54;;;;;;;13.47;6.93;;;;;;;17.48;100.00;101226.87;1423908;92;21427;-88
2023/10/03 07:51:29;;;;;;;15.87;6.93;;;;;;;17.64;100.00;101228.66;1404691;92;21442;-89
2023/10/03 07:53:56;;;;;;;14.35;6.90;;;;;;;17.78;100.00;101231.94;1423233;92;21537;-88
2023/10/03 07:56:30;;;;;;;16.82;6.55;;;;;;;17.94;100.00;101226.51;1424083;92;21435;-89
2023/10/03 07:59:04;;;;;;;15.55;6.75;;;;;;;18.11;100.00;101223.23;1422436;92;21353;-88
2023/10/03 08:01:31;;;;;;;22.30;7.50;;;;;;;18.28;100.00;101223.95;1417865;92;21539;-87
2023/10/03 08:03:58;;;;;;;14.43;5.33;;;;;;;18.44;100.00;101221.16;1420305;92;21547;-88
2023/10/03 08:06:33;;;;;;;13.38;5.65;;;;;;;18.61;100.00;101218.31;1421609;91;22476;-88
2023/10/03 08:08:59;;;;;;;14.68;6.35;;;;;;;18.78;100.00;101213.67;1424482;92;21456;-87
2023/10/03 08:11:28;;;;;;;13.15;6.72;;;;;;;18.84;100.00;101208.41;1422330;92;22566;-88
2023/10/03 08:13:51;;;;;;;15.53;6.17;;;;;;;18.95;100.00;101213.84;1422273;92;21500;-82
2023/10/03 08:16:21;;;;;;;20.35;7.85;;;;;;;19.02;98.80;101209.42;1407764;92;22339;-81
2023/10/03 08:18:57;;;;;;;15.68;6.85;;;;;;;19.12;98.33;101215.84;1423765;92;22410;-80
2023/10/03 08:21:16;;;;;;;22.45;6.70;;;;;;;19.27;96.47;101213.98;1417211;92;21619;-79
2023/10/03 08:23:46;;;;;;;15.53;7.22;;;;;;;19.36;93.30;101208.86;1424542;91;21457;-82
2023/10/03 08:26:11;;;;;;;12.53;6.33;;;;;;;19.51;94.63;101208.02;1424319;92;21560;-80
2023/10/03 08:28:38;;;;;;;18.32;6.00;;;;;;;19.65;93.50;101203.16;1417053;92;21620;-80
2023/10/03 08:31:06;;;;;;;23.45;5.80;;;;;;;19.81;91.75;101215.52;1423784;91;21450;-89
2023/10/03 08:33:36;;;;;;;9.73;5.00;;;;;;;19.95;91.60;101206.59;1422422;92;23296;-86
2023/10/03 08:36:14;;;;;;;12.20;6.65;;;;;;;20.11;91.03;101203.33;1425015;92;21405;-86
2023/10/03 08:38:43;;;;;;;14.93;5.75;;;;;;;20.26;84.71;101210.84;1417656;92;22486;-87
2023/10/03 08:41:01;;;;;;;15.60;5.80;;;;;;;20.36;87.26;101203.27;1416310;92;21656;-87
2023/10/03 08:43:28;;;;;;;12.07;5.22;;;;;;;20.50;87.37;101208.25;1397264;92;21494;-87
2023/10/03 08:45:57;;;;;;;18.92;6.47;;;;;;;20.63;87.24;101204.37;1420237;91;21472;-86
2023/10/03 08:48:26;;;;;;;15.50;5.50;;;;;;;20.73;84.46;101188.70;1404015;92;21420;-87
2023/10/03 08:50:58;;;;;;;16.67;5.58;;;;;;;20.83;84.65;101203.66;1423882;92;21571;-86
2023/10/03 08:53:27;;;;;;;;;;;;;;;20.86;84.61;101201.92;1420683;92;22411;-85
2023/10/03 08:56:05;;;;;;;;;;;;;;;20.87;84.11;101204.95;1419509;92;20282;-87
2023/10/03 08:58:32;;;;;;;13.78;6.05;;;;;;;20.85;84.00;101204.31;1424233;92;20400;-90
2023/10/03 09:01:02;;;;;;;14.83;5.12;;;;;;;20.85;84.00;101204.31;1403651;92;21450;-86
2023/10/03 09:03:47;;;;;;;48.13;6.80;;;;;;;20.86;81.41;101200.58;1421987;92;21523;-84
2023/10/03 09:06:22;;;;;;;21.70;6.47;;;;;;;20.96;81.15;101201.08;1476560;91;22221;-85
2023/10/03 09:09:08;;;;;;;16.73;6.75;;;;;;;21.09;81.06;101199.82;1348437;92;21354;-83
2023/10/03 09:11:37;;;;;;;13.22;5.87;;;;;;;21.32;81.90;101198.67;1501008;91;21236;-85
2023/10/03 09:14:05;;;;;;;11.10;6.05;;;;;;;21.55;79.87;101195.20;1424236;92;21346;-84
2023/10/03 09:16:38;;;;;;;17.42;5.75;;;;;;;21.72;79.09;101196.18;1349730;91;22355;-85
2023/10/03 09:19:04;;;;;;;16.77;5.83;;;;;;;21.87;78.18;101188.78;1498360;92;21407;-86
2023/10/03 09:21:30;;;;;;;16.57;5.03;;;;;;;22.09;77.17;101182.69;1349837;92;21593;-86
2023/10/03 09:24:01;;;;;;;15.58;5.85;;;;;;;22.26;67.40;101188.03;1333937;93;21288;-85
2023/10/03 09:26:50;;;;;;;22.52;6.65;;;;;;;22.48;64.18;101187.84;1495347;91;21362;-85
2023/10/03 09:29:18;;;;;;;16.25;6.25;;;;;;;22.67;64.69;101182.97;1413761;92;21970;-84
2023/10/03 09:31:47;;;;;;;18.90;6.42;;;;;;;22.90;64.14;101182.52;1500671;92;21244;-85
2023/10/03 09:34:16;;;;;;;11.27;5.87;;;;;;;23.17;63.06;101186.52;1423089;92;21722;-85
2023/10/03 09:36:42;;;;;;;16.87;6.08;;;;;;;23.34;57.62;101178.25;1418664;92;22844;-88
2023/10/03 09:39:20;;;;;;;13.48;5.75;;;;;;;23.48;56.26;101187.64;1420560;92;21575;-84
2023/10/03 09:41:38;;;;;;;12.70;5.37;;;;;;;23.42;48.28;101184.77;1419239;92;21560;-84
2023/10/03 09:44:07;;;;;;;14.87;5.55;;;;;;;23.39;46.68;101183.85;1419086;92;21389;-85
2023/10/03 09:46:41;;;;;;;12.23;4.70;;;;;;;23.34;46.45;101180.95;1419654;92;21434;-87
2023/10/03 09:49:08;;;;;;;19.65;5.67;;;;;;;23.39;46.88;101178.45;1422011;92;22873;-81
2023/10/03 09:51:51;;;;;;;11.30;5.55;;;;;;;23.51;47.08;101172.37;1416353;92;21519;-82
2023/10/03 09:54:30;;;;;;;14.75;5.78;;;;;;;23.63;47.19;101166.59;1420293;92;21449;-85
2023/10/03 09:56:55;;;;;;;15.63;5.00;;;;;;;23.69;46.80;101165.73;1348732;93;21310;-81
2023/10/03 09:59:24;;;;;;;11.55;4.97;;;;;;;23.71;46.56;101161.47;1356526;92;21347;-85
2023/10/03 10:01:55;;;;;;;16.35;6.25;;;;;;;23.84;46.03;101158.17;1483453;92;22470;-85
2023/10/03 10:04:21;;;;;;;11.88;4.87;;;;;;;24.04;45.73;101151.81;1421894;92;21456;-83
2023/10/03 10:06:53;;;;;;;13.62;5.70;;;;;;;24.18;44.53;101150.66;1417873;92;21419;-84
2023/10/03 10:09:29;;;;;;;7.78;4.25;;;;;;;24.22;44.15;101149.16;1347719;93;21464;-85
2023/10/03 10:12:19;;;;;;;21.97;4.67;;;;;;;24.18;44.39;101143.08;1347502;92;22116;-86
2023/10/03 10:17:51;;;;;;;14.28;5.45;;;;;;;24.21;44.46;101140.75;1495123;91;21295;-84
2023/10/03 10:20:38;;;;;;;24.12;4.92;;;;;;;24.35;43.98;101131.19;1500904;91;21295;-81
2023/10/03 10:25:43;;;;;;;13.90;5.15;;;;;;;24.55;43.26;101129.16;1500901;92;21229;-83
2023/10/03 10:28:15;;;;;;;14.93;5.95;;;;;;;24.65;43.47;101119.98;1485092;92;21626;-90
2023/10/03 10:30:47;;;;;;;13.00;5.10;;;;;;;24.67;43.36;101117.89;1422122;92;21484;-82
2023/10/03 10:33:23;;;;;;;21.07;5.12;;;;;;;24.78;43.31;101124.98;1417210;92;21634;-81
2023/10/03 10:36:09;;;;;;;9.90;4.37;;;;;;;24.81;43.25;101126.70;1422527;92;22397;-81
2023/10/03 10:38:38;;;;;;;13.83;5.37;;;;;;;24.84;41.90;101115.95;1421294;92;21486;-87
2023/10/03 10:41:22;;;;;;;10.65;3.87;;;;;;;24.84;42.38;101110.53;1422347;91;21323;-92
2023/10/03 10:44:14;;;;;;;8.20;4.65;;;;;;;24.78;42.36;101109.55;1420725;92;21485;-82
2023/10/03 10:46:49;;;;;;;11.93;4.70;;;;;;;24.80;42.19;101110.17;1422582;91;21568;-82
2023/10/03 10:49:39;;;;;;;10.58;4.37;;;;;;;24.76;42.29;101102.17;1421858;92;21457;-91
2023/10/03 10:52:07;;;;;;;;;;;;;;;24.75;42.12;101097.30;1422254;92;21604;-82
2023/10/03 10:54:39;;;;;;;14.23;4.53;;;;;;;24.76;41.91;101103.00;1422736;92;20557;-81
2023/10/03 10:57:05;;;;;;;14.45;4.42;;;;;;;24.70;41.34;101097.14;1422025;92;21478;-81
2023/10/03 10:59:36;;;;;;;10.60;4.23;;;;;;;24.64;41.05;101091.80;1423117;91;21531;-82
2023/10/03 11:02:04;;;;;;;9.40;4.05;;;;;;;24.58;40.67;101092.70;1420444;91;22506;-83
2023/10/03 11:04:33;;;;;;;10.45;4.40;;;;;;;24.65;40.92;101087.50;1419532;92;21463;-84
2023/10/03 11:06:58;;;;;;;15.83;5.08;;;;;;;24.80;41.51;101089.02;1420977;92;21501;-84
2023/10/03 11:09:26;;;;;;;12.73;4.97;;;;;;;25.00;41.19;101085.54;1423165;92;22350;-82
2023/10/03 11:12:04;;;;;;;12.18;4.50;;;;;;;25.10;40.21;101082.31;1402704;92;21626;-88
2023/10/03 11:14:31;;;;;;;12.85;4.35;;;;;;;25.02;40.53;101077.20;1421244;91;21463;-88
2023/10/03 11:16:59;;;;;;;8.88;4.25;;;;;;;24.96;39.51;101077.59;1419698;92;21405;-87
2023/10/03 11:19:30;;;;;;;10.95;4.28;;;;;;;24.87;40.16;101074.89;1421178;92;22353;-88
2023/10/03 11:21:56;;;;;;;13.78;5.20;;;;;;;24.85;40.30;101072.92;1420495;91;21516;-87
2023/10/03 11:24:28;;;;;;;14.80;3.92;;;;;;;24.75;40.14;101077.00;1419240;92;22440;-90
2023/10/03 11:26:58;;;;;;;10.85;4.72;;;;;;;24.69;40.24;101074.37;1425692;91;21450;-89
2023/10/03 11:29:46;;;;;;;;;;;;;;;24.64;40.52;101064.21;1404828;92;21545;-89
2023/10/03 11:32:30;;;;;;;11.90;4.37;;;;;;;24.53;39.90;101064.95;1437279;90;20252;-90
2023/10/03 11:34:58;;;;;;;20.23;4.78;;;;;;;24.61;40.84;101066.55;1422474;92;22466;-88